createdAt,value
2023-05-04T00:00:08.257Z,2.90
2023-05-04T00:02:35.042Z,2.77
2023-05-04T00:05:01.790Z,2.93
2023-05-04T00:07:28.366Z,2.73
2023-05-04T00:09:54.914Z,2.93
2023-05-04T00:12:21.448Z,2.73
2023-05-04T00:14:47.964Z,2.80
2023-05-04T00:17:14.565Z,2.90
2023-05-04T00:19:42.343Z,2.80
2023-05-04T00:22:09.168Z,2.77
2023-05-04T00:24:35.991Z,2.37
2023-05-04T00:27:02.490Z,2.30
2023-05-04T00:29:29.664Z,2.77
2023-05-04T00:31:56.649Z,2.70
2023-05-04T00:34:23.662Z,2.67
2023-05-04T00:36:50.230Z,2.70
2023-05-04T00:39:16.795Z,2.53
2023-05-04T00:41:44.511Z,2.73
2023-05-04T00:44:11.237Z,2.90
2023-05-04T00:46:37.953Z,2.50
2023-05-04T00:49:04.538Z,2.80
2023-05-04T00:51:31.213Z,3.73
2023-05-04T00:53:58.110Z,2.60
2023-05-04T00:56:24.903Z,2.87
2023-05-04T00:58:54.695Z,2.50
2023-05-04T01:01:22.300Z,3.30
2023-05-04T01:03:50.131Z,2.90
2023-05-04T01:06:23.271Z,2.60
2023-05-04T01:09:01.588Z,2.93
2023-05-04T01:11:37.189Z,2.70
2023-05-04T01:14:03.729Z,2.90
2023-05-04T01:16:30.266Z,2.90
2023-05-04T01:18:56.871Z,3.30
2023-05-04T01:21:23.415Z,3.60
2023-05-04T01:23:50.588Z,2.67
2023-05-04T01:26:24.816Z,2.90
2023-05-04T01:29:00.624Z,2.77
2023-05-04T01:31:27.296Z,3.40
2023-05-04T01:33:54.235Z,3.10
2023-05-04T01:36:21.230Z,3.17
2023-05-04T01:38:48.910Z,2.97
2023-05-04T01:41:15.432Z,3.03
2023-05-04T01:43:42.504Z,2.73
2023-05-04T01:46:09.058Z,2.93
2023-05-04T01:48:35.661Z,2.90
2023-05-04T01:51:02.223Z,3.33
2023-05-04T01:53:28.706Z,2.80
2023-05-04T01:55:55.285Z,3.00
2023-05-04T01:58:21.811Z,3.23
2023-05-04T02:00:48.336Z,2.97
2023-05-04T02:03:14.943Z,3.10
2023-05-04T02:05:41.663Z,2.97
2023-05-04T02:08:08.227Z,2.83
2023-05-04T02:10:34.932Z,3.20
2023-05-04T02:13:01.513Z,2.77
2023-05-04T02:15:28.180Z,3.20
2023-05-04T02:17:55.278Z,2.83
2023-05-04T02:20:21.818Z,2.90
2023-05-04T02:22:48.361Z,3.10
2023-05-04T02:25:14.951Z,3.23
2023-05-04T02:27:41.466Z,3.10
2023-05-04T02:30:09.221Z,3.37
2023-05-04T02:32:36.472Z,3.57
2023-05-04T02:35:03.145Z,3.10
2023-05-04T02:37:29.692Z,3.50
2023-05-04T02:39:56.235Z,3.00
2023-05-04T02:42:22.960Z,2.90
2023-05-04T02:44:49.515Z,3.27
2023-05-04T02:47:15.995Z,2.87
2023-05-04T02:49:42.562Z,2.90
2023-05-04T02:52:09.133Z,3.30
2023-05-04T02:54:35.715Z,3.10
2023-05-04T02:57:02.272Z,2.90
2023-05-04T02:59:28.775Z,3.30
2023-05-04T03:01:55.621Z,3.70
2023-05-04T03:04:22.185Z,3.50
2023-05-04T03:06:48.722Z,2.73
2023-05-04T03:09:15.240Z,2.97
2023-05-04T03:11:41.796Z,3.20
2023-05-04T03:14:08.333Z,3.17
2023-05-04T03:16:35.030Z,3.67
2023-05-04T03:19:01.685Z,3.13
2023-05-04T03:21:28.319Z,2.97
2023-05-04T03:23:54.851Z,2.97
2023-05-04T03:26:21.553Z,3.20
2023-05-04T03:28:48.121Z,3.27
2023-05-04T03:31:14.744Z,3.03
2023-05-04T03:33:41.549Z,3.03
2023-05-04T03:36:09.237Z,2.90
2023-05-04T03:38:35.755Z,3.23
2023-05-04T03:41:02.535Z,2.97
2023-05-04T03:43:29.038Z,2.90
2023-05-04T03:45:55.629Z,2.80
2023-05-04T03:48:22.139Z,3.20
2023-05-04T03:50:48.658Z,2.70
2023-05-04T03:53:15.262Z,3.27
2023-05-04T03:55:41.877Z,2.90
2023-05-04T03:58:08.400Z,2.97
2023-05-04T04:00:35.151Z,2.80
2023-05-04T04:03:02.152Z,3.07
2023-05-04T04:05:28.955Z,2.70
2023-05-04T04:07:55.481Z,2.87
2023-05-04T04:10:22.713Z,3.10
2023-05-04T04:12:49.882Z,3.07
2023-05-04T04:15:16.522Z,3.03
2023-05-04T04:17:43.105Z,2.77
2023-05-04T04:20:10.209Z,3.10
2023-05-04T04:22:36.789Z,2.70
2023-05-04T04:25:03.436Z,2.90
2023-05-04T04:27:29.974Z,2.90
2023-05-04T04:29:56.955Z,2.90
2023-05-04T04:32:23.502Z,2.80
2023-05-04T04:34:50.030Z,2.70
2023-05-04T04:37:16.612Z,3.10
2023-05-04T04:39:43.190Z,2.97
2023-05-04T04:42:09.759Z,3.03
2023-05-04T04:44:36.504Z,3.07
2023-05-04T04:47:03.150Z,3.20
2023-05-04T04:49:29.806Z,2.80
2023-05-04T04:51:56.836Z,2.90
2023-05-04T04:54:23.440Z,3.13
2023-05-04T04:56:49.965Z,2.90
2023-05-04T04:59:17.350Z,2.97
2023-05-04T05:01:43.923Z,2.80
2023-05-04T05:04:10.492Z,2.90
2023-05-04T05:06:37.074Z,3.37
2023-05-04T05:09:03.682Z,3.10
2023-05-04T05:11:30.217Z,2.90
2023-05-04T05:13:56.777Z,3.00
2023-05-04T05:16:23.782Z,3.10
2023-05-04T05:18:50.345Z,3.00
2023-05-04T05:21:16.915Z,3.30
2023-05-04T05:23:43.454Z,2.83
2023-05-04T05:26:09.983Z,3.03
2023-05-04T05:28:37.202Z,3.17
2023-05-04T05:31:03.922Z,3.00
2023-05-04T05:33:30.448Z,3.00
2023-05-04T05:35:56.970Z,3.40
2023-05-04T05:38:23.605Z,3.87
2023-05-04T05:40:50.165Z,5.00
2023-05-04T05:43:16.674Z,7.27
2023-05-04T05:45:43.227Z,6.27
2023-05-04T05:48:09.837Z,8.00
2023-05-04T05:50:36.333Z,8.60
2023-05-04T05:53:02.866Z,7.00
2023-05-04T05:55:29.419Z,8.87
2023-05-04T05:57:55.990Z,8.53
2023-05-04T06:00:22.529Z,14.23
2023-05-04T06:02:49.249Z,11.40
2023-05-04T06:05:15.879Z,7.20
2023-05-04T06:07:42.537Z,6.70
2023-05-04T06:10:09.560Z,6.23
2023-05-04T06:12:36.335Z,7.10
2023-05-04T06:15:02.949Z,6.50
2023-05-04T06:17:29.548Z,12.53
2023-05-04T06:19:56.394Z,6.47
2023-05-04T06:22:22.966Z,9.57
2023-05-04T06:24:49.765Z,9.67
2023-05-04T06:27:16.478Z,8.37
2023-05-04T06:29:43.013Z,9.60
2023-05-04T06:32:12.798Z,10.30
2023-05-04T06:34:39.447Z,7.17
2023-05-04T06:37:06.004Z,9.40
2023-05-04T06:39:32.942Z,10.97
2023-05-04T06:41:59.701Z,8.93
2023-05-04T06:44:26.301Z,7.73
2023-05-04T06:46:53.864Z,9.03
2023-05-04T06:49:20.479Z,6.93
2023-05-04T06:51:46.970Z,6.67
2023-05-04T06:54:13.547Z,5.50
2023-05-04T06:56:40.444Z,6.47
2023-05-04T06:59:08.161Z,6.10
2023-05-04T07:01:34.768Z,5.27
2023-05-04T07:04:01.567Z,4.67
2023-05-04T07:06:29.461Z,7.17
2023-05-04T07:08:56.414Z,5.77
2023-05-04T07:11:23.502Z,4.80
2023-05-04T07:13:50.418Z,6.17
2023-05-04T07:16:16.995Z,5.87
2023-05-04T07:18:43.559Z,4.40
2023-05-04T07:21:27.033Z,7.57
2023-05-04T07:23:55.463Z,6.23
2023-05-04T07:26:22.726Z,4.90
2023-05-04T07:28:49.257Z,4.30
2023-05-04T07:31:15.986Z,5.10
2023-05-04T07:33:42.648Z,5.87
2023-05-04T07:36:09.291Z,4.57
2023-05-04T07:38:36.265Z,7.07
2023-05-04T07:41:02.974Z,8.67
2023-05-04T07:43:29.517Z,6.20
2023-05-04T07:45:56.052Z,5.57
2023-05-04T07:48:24.614Z,7.00
2023-05-04T07:50:52.761Z,8.43
2023-05-04T07:53:20.761Z,5.13
2023-05-04T07:55:47.930Z,11.43
2023-05-04T07:58:15.566Z,7.80
2023-05-04T08:00:42.236Z,5.90
2023-05-04T08:03:08.758Z,7.67
2023-05-04T08:05:35.357Z,5.07
2023-05-04T08:08:01.905Z,6.23
2023-05-04T08:10:29.169Z,4.77
2023-05-04T08:12:55.730Z,5.13
2023-05-04T08:15:22.305Z,4.37
2023-05-04T08:17:48.953Z,4.90
2023-05-04T08:20:16.712Z,4.80
2023-05-04T08:22:43.296Z,4.73
2023-05-04T08:25:10.051Z,5.20
2023-05-04T08:27:36.636Z,4.60
2023-05-04T08:30:03.453Z,5.13
2023-05-04T08:32:31.843Z,4.37
2023-05-04T08:34:59.706Z,4.10
2023-05-04T08:37:26.454Z,6.93
2023-05-04T08:39:53.126Z,4.63
2023-05-04T08:42:32.767Z,4.03
2023-05-04T08:44:59.446Z,4.43
2023-05-04T08:47:26.572Z,4.20
2023-05-04T08:49:54.187Z,4.40
2023-05-04T08:52:22.565Z,5.37
2023-05-04T08:54:49.076Z,4.40
2023-05-04T08:57:15.742Z,4.13
2023-05-04T08:59:42.701Z,5.23
2023-05-04T09:02:09.555Z,3.90
2023-05-04T09:04:36.249Z,4.73
2023-05-04T09:07:03.412Z,3.60
2023-05-04T09:09:31.692Z,4.80
2023-05-04T09:11:59.060Z,4.40
2023-05-04T09:14:32.421Z,3.57
2023-05-04T09:16:59.082Z,3.67
2023-05-04T09:19:33.185Z,3.53
2023-05-04T09:22:01.087Z,4.53
2023-05-04T09:24:28.480Z,4.33
2023-05-04T09:26:54.988Z,4.77
2023-05-04T09:29:23.920Z,4.20
2023-05-04T09:31:51.131Z,4.90
2023-05-04T09:34:20.259Z,4.10
2023-05-04T09:36:58.664Z,3.80
2023-05-04T09:39:25.436Z,4.00
2023-05-04T09:41:51.973Z,3.73
2023-05-04T09:44:19.602Z,4.33
2023-05-04T09:46:58.873Z,3.30
2023-05-04T09:49:35.234Z,3.30
2023-05-04T09:52:02.858Z,4.07
2023-05-04T09:54:32.452Z,3.57
2023-05-04T09:57:04.995Z,3.70
2023-05-04T09:59:34.241Z,3.20
2023-05-04T10:02:10.584Z,3.50
2023-05-04T10:04:45.100Z,3.83
2023-05-04T10:07:11.613Z,3.40
2023-05-04T10:09:38.162Z,3.47
2023-05-04T10:12:05.402Z,3.70
2023-05-04T10:14:35.063Z,3.60
2023-05-04T10:17:13.900Z,3.50
2023-05-04T10:19:58.613Z,3.33
2023-05-04T10:22:37.123Z,3.37
2023-05-04T10:25:07.374Z,3.53
2023-05-04T10:27:54.481Z,4.43
2023-05-04T10:30:21.217Z,3.37
2023-05-04T10:32:55.207Z,3.13
2023-05-04T10:35:21.923Z,3.73
2023-05-04T10:37:54.484Z,3.33
2023-05-04T10:40:41.968Z,3.47
2023-05-04T10:43:08.647Z,3.43
2023-05-04T10:45:38.750Z,3.40
2023-05-04T10:48:06.122Z,3.10
2023-05-04T10:50:43.627Z,3.30
2023-05-04T10:53:10.277Z,2.97
2023-05-04T10:55:41.637Z,3.67
2023-05-04T10:58:08.489Z,3.30
2023-05-04T11:00:38.263Z,3.23
2023-05-04T11:03:05.660Z,3.20
2023-05-04T11:05:45.594Z,3.20
2023-05-04T11:08:19.451Z,3.10
2023-05-04T11:10:47.291Z,3.43
2023-05-04T11:13:14.134Z,3.03
2023-05-04T11:15:47.544Z,3.03
2023-05-04T11:18:14.477Z,3.00
2023-05-04T11:20:42.468Z,3.00
2023-05-04T11:23:10.352Z,2.40
2023-05-04T11:25:37.637Z,3.07
2023-05-04T11:28:04.455Z,2.93
2023-05-04T11:30:33.249Z,2.87
2023-05-04T11:33:00.572Z,3.20
2023-05-04T11:35:27.302Z,4.07
2023-05-04T11:37:54.418Z,3.23
2023-05-04T11:40:24.620Z,3.13
2023-05-04T11:42:52.417Z,2.67
2023-05-04T11:45:19.658Z,3.00
2023-05-04T11:47:46.530Z,2.93
2023-05-04T11:50:14.122Z,2.93
2023-05-04T11:52:41.542Z,3.00
2023-05-04T11:55:12.678Z,2.80
2023-05-04T11:57:39.765Z,2.77
2023-05-04T12:00:09.748Z,3.10
2023-05-04T12:02:36.466Z,4.17
2023-05-04T12:05:03.406Z,3.00
2023-05-04T12:07:30.073Z,3.00
2023-05-04T12:09:56.878Z,2.57
2023-05-04T12:12:23.590Z,6.00
2023-05-04T12:14:53.616Z,5.13
2023-05-04T12:17:20.620Z,4.83
2023-05-04T12:19:54.729Z,3.03
2023-05-04T12:22:32.878Z,5.30
2023-05-04T12:24:59.840Z,5.67
2023-05-04T12:27:26.666Z,7.03
2023-05-04T12:29:53.258Z,7.07
2023-05-04T12:32:19.819Z,6.17
